KBYG/BYG METAR and TAF weather

Enter ICAO airport designator
Station Type Date Time Source
KBYG METAR 2019/05/26 00:53 UTC NOAA

KBYG 260053Z AUTO 32003KT 10SM FEW095 18/06 A2991 RMK AO2 SLP094 T01830056


Station Type Date Time Source
KBYG Decoded METAR 2019/05/26 00:53 UTC NOAA

BUFFALO JOHNSON COUNTY AIRPORT , WY, United States (KBYG) 44-23N 106-43W 1497M
May 25, 2019 - 08:53 PM EDT / 2019.05.26 0053 UTC
Wind: from the NW (320 degrees) at 3 MPH (3 KT):0
Visibility: 10 mile(s):0
Sky conditions: mostly clear
Temperature: 64.9 F (18.3 C)
Dew Point: 42.1 F (5.6 C)
Relative Humidity: 43%
Pressure (altimeter): 29.91 in. Hg (1012 hPa)
ob: KBYG 260053Z AUTO 32003KT 10SM FEW095 18/06 A2991 RMK AO2 SLP094 T01830056
cycle: 1

Station Type Date Time Source
KBYG TAF UTC NOAA

Error!

Example: see airport list